Time;durP1;ratioP1;P1;durP2;ratioP2;P2;SDS_P1;SDS_P2;PMS_P1;PMS_P2;Temp;Humidity;BMP_temperature;BMP_pressure;BME280_temperature;BME280_humidity;BME280_pressure;Samples;Min_cycle;Max_cycle;Signal;HPM_P1;HPM_P2
2022/03/03 00:01:41;;;;;;;45.22;24.63;;;1.40;99.90;;;;;;5002944;28;20054;-77
2022/03/03 00:04:07;;;;;;;47.42;26.02;;;2.40;99.90;;;;;;5012132;28;20037;-77
2022/03/03 00:06:34;;;;;;;44.35;25.35;;;1.30;99.90;;;;;;5005386;28;20049;-77
2022/03/03 00:09:00;;;;;;;46.15;25.05;;;2.00;99.90;;;;;;5005101;28;20133;-77
2022/03/03 00:11:25;;;;;;;47.30;25.63;;;1.30;99.90;;;;;;5019662;28;20175;-77
2022/03/03 00:13:51;;;;;;;47.25;25.75;;;0.40;99.90;;;;;;5012011;28;20042;-77
2022/03/03 00:16:17;;;;;;;47.92;26.05;;;2.10;99.90;;;;;;5005240;28;20053;-76
2022/03/03 00:18:43;;;;;;;45.50;25.33;;;2.00;99.90;;;;;;4988274;28;20041;-76
2022/03/03 00:21:09;;;;;;;45.75;24.85;;;1.30;99.90;;;;;;5019934;28;20051;-76
2022/03/03 00:23:34;;;;;;;43.53;25.23;;;2.60;99.90;;;;;;5005018;28;20081;-76
2022/03/03 00:26:00;;;;;;;48.58;25.10;;;1.30;99.90;;;;;;5005125;28;20395;-76
2022/03/03 00:28:26;;;;;;;47.70;25.40;;;2.60;99.90;;;;;;5019414;28;20053;-76
2022/03/03 00:30:52;;;;;;;45.63;25.83;;;1.80;99.90;;;;;;5005344;28;20132;-76
2022/03/03 00:33:18;;;;;;;47.47;26.85;;;1.30;99.90;;;;;;5020453;28;20127;-76
2022/03/03 00:35:45;;;;;;;48.70;25.92;;;2.30;99.90;;;;;;5021173;28;20088;-75
2022/03/03 00:38:11;;;;;;;46.47;26.40;;;1.30;99.90;;;;;;5004224;28;20046;-75
2022/03/03 00:40:37;;;;;;;47.45;27.02;;;1.30;99.90;;;;;;5036349;28;20056;-75
2022/03/03 00:43:06;;;;;;;48.40;27.25;;;1.30;99.90;;;;;;5020582;28;20058;-75
2022/03/03 00:45:33;;;;;;;49.47;26.33;;;1.30;99.90;;;;;;5036717;28;20168;-75
2022/03/03 00:47:59;;;;;;;47.65;26.10;;;1.30;99.90;;;;;;5021303;28;20502;-75
2022/03/03 00:50:24;;;;;;;50.40;25.42;;;1.30;99.90;;;;;;5018857;28;20050;-75
2022/03/03 00:52:50;;;;;;;45.83;25.33;;;1.20;99.90;;;;;;5020569;28;20045;-75
2022/03/03 00:55:16;;;;;;;48.15;26.48;;;1.20;99.90;;;;;;5003233;28;20053;-76
2022/03/03 00:57:41;;;;;;;48.70;25.42;;;1.20;99.90;;;;;;5003344;28;20056;-75
2022/03/03 01:00:09;;;;;;;48.83;25.73;;;2.50;99.90;;;;;;5020582;28;20394;-75
2022/03/03 01:02:35;;;;;;;46.20;25.55;;;1.10;99.90;;;;;;5019713;28;20053;-76
2022/03/03 01:05:02;;;;;;;45.17;25.15;;;2.50;99.90;;;;;;5018755;28;20041;-75
2022/03/03 01:07:28;;;;;;;49.05;24.92;;;1.10;99.90;;;;;;5017261;28;20042;-76
2022/03/03 01:09:54;;;;;;;44.20;24.65;;;1.30;99.90;;;;;;5018520;28;20069;-75
2022/03/03 01:12:20;;;;;;;43.72;24.48;;;1.40;99.90;;;;;;5018213;28;20621;-75
2022/03/03 01:14:45;;;;;;;45.70;24.83;;;2.70;99.90;;;;;;5004046;28;20065;-75
2022/03/03 01:17:13;;;;;;;46.58;25.15;;;0.90;99.90;;;;;;5020261;28;20050;-76
2022/03/03 01:19:40;;;;;;;47.63;26.33;;;0.90;99.90;;;;;;5036542;28;20500;-75
2022/03/03 01:22:06;;;;;;;47.10;25.83;;;2.30;99.90;;;;;;5019306;28;20050;-75
2022/03/03 01:24:32;;;;;;;47.55;25.70;;;1.20;99.90;;;;;;5019436;28;20045;-75
2022/03/03 01:26:58;;;;;;;48.42;26.58;;;0.80;99.90;;;;;;5003983;28;20049;-75
2022/03/03 01:29:24;;;;;;;47.08;25.52;;;0.90;99.90;;;;;;5019384;28;20537;-75
2022/03/03 01:31:49;;;;;;;52.33;26.08;;;0.80;99.90;;;;;;5002688;28;20053;-75
2022/03/03 01:34:15;;;;;;;49.75;25.83;;;0.80;99.90;;;;;;4987126;28;20060;-75
2022/03/03 01:36:42;;;;;;;47.95;25.48;;;1.70;99.90;;;;;;5002886;28;20045;-75
2022/03/03 01:39:09;;;;;;;44.63;25.60;;;1.60;99.90;;;;;;5003736;28;20053;-75
2022/03/03 01:41:36;;;;;;;46.83;25.77;;;0.70;99.90;;;;;;5017527;28;20057;-75
2022/03/03 01:44:02;;;;;;;41.97;23.20;;;1.70;99.90;;;;;;5016272;28;20053;-76
2022/03/03 01:46:28;;;;;;;47.88;25.90;;;1.00;99.90;;;;;;5001291;28;20797;-76
2022/03/03 01:48:54;;;;;;;47.65;25.52;;;1.00;99.90;;;;;;5010320;28;20049;-76
2022/03/03 01:51:20;;;;;;;46.72;26.60;;;0.70;99.90;;;;;;5017609;28;20435;-76
2022/03/03 01:53:45;;;;;;;49.88;25.40;;;1.70;99.90;;;;;;5017962;28;20064;-77
2022/03/03 01:56:12;;;;;;;47.25;26.65;;;1.50;99.90;;;;;;5019341;28;20487;-77
2022/03/03 01:58:39;;;;;;;45.97;24.33;;;0.60;99.90;;;;;;5020734;28;20132;-77
2022/03/03 02:01:05;;;;;;;44.90;23.67;;;0.60;99.90;;;;;;5003519;28;20136;-77
2022/03/03 02:03:31;;;;;;;44.67;24.58;;;0.50;99.90;;;;;;5019296;28;20661;-76
2022/03/03 02:05:57;;;;;;;46.70;24.63;;;0.50;99.90;;;;;;5011200;28;20145;-76
2022/03/03 02:08:23;;;;;;;47.38;25.67;;;0.70;99.90;;;;;;5019058;28;20057;-76
2022/03/03 02:10:51;;;;;;;46.90;24.92;;;0.50;99.90;;;;;;5018640;28;20080;-76
2022/03/03 02:13:17;;;;;;;47.85;25.63;;;1.40;99.90;;;;;;5019576;28;20060;-77
2022/03/03 02:15:53;;;;;;;47.13;24.98;;;1.50;99.90;;;;;;5018106;28;20136;-76
2022/03/03 02:18:20;;;;;;;49.63;25.35;;;1.80;99.90;;;;;;5016963;28;20053;-76
2022/03/03 02:20:46;;;;;;;46.85;24.73;;;0.90;99.90;;;;;;5018099;28;20053;-76
2022/03/03 02:23:12;;;;;;;46.25;25.15;;;1.20;99.90;;;;;;5019147;28;20117;-77
2022/03/03 02:25:38;;;;;;;48.17;26.48;;;0.20;99.90;;;;;;5017676;28;20057;-76
2022/03/03 02:28:04;;;;;;;46.22;24.73;;;0.20;99.90;;;;;;5017769;28;20042;-77
2022/03/03 02:30:30;;;;;;;48.17;26.83;;;1.30;99.90;;;;;;5018257;28;20061;-76
2022/03/03 02:32:56;;;;;;;49.10;25.13;;;1.00;99.90;;;;;;5018365;28;20050;-76
2022/03/03 02:35:21;;;;;;;45.88;24.70;;;0.10;99.90;;;;;;5002494;28;20057;-76
2022/03/03 02:37:47;;;;;;;45.90;23.85;;;1.50;99.90;;;;;;5002458;28;20411;-76
2022/03/03 02:40:20;;;;;;;46.38;24.70;;;0.10;99.90;;;;;;4985932;28;20045;-76
2022/03/03 02:42:51;;;;;;;46.92;25.67;;;0.70;99.90;;;;;;5019101;28;20450;-76
2022/03/03 02:45:17;;;;;;;45.67;25.10;;;1.30;99.90;;;;;;5001849;28;20049;-77
2022/03/03 02:47:45;;;;;;;48.20;25.42;;;1.40;99.90;;;;;;5003182;28;20096;-76
2022/03/03 02:50:12;;;;;;;43.05;24.48;;;0.60;99.90;;;;;;5018090;28;20049;-76
2022/03/03 02:52:38;;;;;;;48.65;25.70;;;0.00;99.90;;;;;;5016387;28;20080;-76
2022/03/03 02:55:05;;;;;;;48.85;25.90;;;0.00;99.90;;;;;;4986061;28;20053;-76
2022/03/03 03:00:16;;;;;;;45.72;24.80;;;0.00;99.90;;;;;;5017677;28;20499;-76
2022/03/03 03:02:42;;;;;;;48.42;25.48;;;0.00;99.90;;;;;;5003255;28;20047;-75
2022/03/03 03:05:09;;;;;;;51.42;26.25;;;0.60;99.90;;;;;;5001815;28;20038;-75
2022/03/03 03:07:35;;;;;;;46.22;25.55;;;1.30;99.90;;;;;;5009486;28;20060;-75
2022/03/03 03:10:00;;;;;;;48.53;25.30;;;0.00;99.90;;;;;;5017264;28;20053;-75
2022/03/03 03:12:26;;;;;;;47.40;24.60;;;0.00;99.90;;;;;;5018733;28;20136;-75
2022/03/03 03:14:52;;;;;;;46.10;25.13;;;0.00;99.90;;;;;;4985584;28;20061;-75
2022/03/03 03:17:18;;;;;;;49.75;26.45;;;1.10;99.90;;;;;;5000785;28;20057;-76
2022/03/03 03:19:44;;;;;;;49.20;27.13;;;0.00;99.90;;;;;;5017520;28;20053;-76
2022/03/03 03:22:09;;;;;;;52.17;26.83;;;0.00;99.90;;;;;;5034831;28;20053;-76
2022/03/03 03:24:35;;;;;;;48.85;25.40;;;1.20;99.90;;;;;;5017750;28;20127;-76
2022/03/03 03:27:01;;;;;;;51.50;26.83;;;1.20;99.90;;;;;;5001767;28;20412;-76
2022/03/03 03:29:27;;;;;;;50.80;26.38;;;-0.10;99.90;;;;;;5000667;28;20130;-76
2022/03/03 03:31:52;;;;;;;46.83;24.45;;;0.80;99.90;;;;;;5017306;28;20054;-76
2022/03/03 03:34:18;;;;;;;47.92;26.50;;;0.70;99.90;;;;;;5017130;28;20133;-78
2022/03/03 03:36:44;;;;;;;48.42;27.27;;;0.90;99.90;;;;;;5002017;28;20054;-77
2022/03/03 03:39:09;;;;;;;45.38;26.55;;;-0.20;99.90;;;;;;5000893;28;20050;-77
2022/03/03 03:41:35;;;;;;;48.13;25.30;;;1.10;99.90;;;;;;4984217;28;20542;-77
2022/03/03 03:44:01;;;;;;;43.90;25.38;;;1.20;99.90;;;;;;5000492;28;20151;-77
2022/03/03 03:46:26;;;;;;;47.42;26.00;;;-0.20;99.90;;;;;;5000547;28;20053;-78
2022/03/03 03:48:52;;;;;;;47.50;25.85;;;0.30;99.90;;;;;;4999738;28;20049;-77
2022/03/03 03:51:18;;;;;;;47.67;25.55;;;-0.20;99.90;;;;;;5000479;28;20083;-78
2022/03/03 03:53:44;;;;;;;47.28;24.13;;;1.20;99.90;;;;;;5016637;28;20045;-77
2022/03/03 03:56:09;;;;;;;44.97;25.27;;;-0.20;99.90;;;;;;5017724;28;20046;-77
2022/03/03 03:58:35;;;;;;;48.38;26.42;;;-0.20;99.90;;;;;;5016877;28;20088;-77
2022/03/03 04:01:01;;;;;;;51.13;25.95;;;-0.20;99.90;;;;;;5016130;28;20041;-77
2022/03/03 04:03:27;;;;;;;47.90;25.35;;;-0.30;99.90;;;;;;5016903;28;20050;-77
2022/03/03 04:05:52;;;;;;;46.92;24.50;;;-0.30;99.90;;;;;;5017903;28;20538;-77
2022/03/03 04:08:18;;;;;;;43.67;24.83;;;-0.30;99.90;;;;;;5000193;28;20054;-77
2022/03/03 04:10:45;;;;;;;45.72;25.27;;;-0.10;99.90;;;;;;4999277;28;20119;-78
2022/03/03 04:13:11;;;;;;;49.20;24.50;;;-0.30;99.90;;;;;;5000138;28;20142;-77
2022/03/03 04:15:37;;;;;;;45.75;24.50;;;0.50;99.90;;;;;;5015479;28;20081;-77
2022/03/03 04:18:03;;;;;;;48.88;25.23;;;-0.40;99.90;;;;;;5018172;28;20096;-77
2022/03/03 04:20:29;;;;;;;46.63;24.40;;;-0.40;99.90;;;;;;5000262;28;20046;-77
2022/03/03 04:22:55;;;;;;;47.22;24.42;;;-0.40;99.90;;;;;;5001481;28;20096;-77
2022/03/03 04:25:21;;;;;;;45.83;25.40;;;0.90;99.90;;;;;;5000511;28;20092;-76
2022/03/03 04:27:46;;;;;;;43.80;24.88;;;0.40;99.90;;;;;;5016570;28;20069;-77
2022/03/03 04:30:12;;;;;;;41.03;22.92;;;1.40;99.90;;;;;;5018287;28;20567;-77
2022/03/03 04:32:39;;;;;;;46.42;25.45;;;-0.50;99.90;;;;;;5016035;28;20049;-77
2022/03/03 04:35:05;;;;;;;48.00;24.25;;;0.90;99.90;;;;;;5016201;28;20096;-77
2022/03/03 04:37:31;;;;;;;46.30;23.13;;;-0.60;99.90;;;;;;5000284;28;20132;-77
2022/03/03 04:39:57;;;;;;;46.05;24.25;;;-0.60;99.90;;;;;;5000920;28;20129;-77
2022/03/03 04:42:23;;;;;;;43.10;24.45;;;0.90;99.90;;;;;;5007756;28;20124;-77
2022/03/03 04:44:49;;;;;;;42.85;24.83;;;-0.60;99.90;;;;;;5017514;28;20543;-77
2022/03/03 04:47:14;;;;;;;46.00;25.17;;;-0.60;99.90;;;;;;5001678;28;20085;-77
2022/03/03 04:49:41;;;;;;;48.45;24.67;;;-0.40;99.90;;;;;;5019616;28;20052;-77
2022/03/03 04:52:06;;;;;;;45.80;23.20;;;-0.60;99.90;;;;;;5018097;28;20099;-77
2022/03/03 04:54:32;;;;;;;43.90;24.02;;;-0.70;99.90;;;;;;5019914;28;20050;-77
2022/03/03 04:56:58;;;;;;;46.88;23.60;;;-0.30;99.90;;;;;;5004692;28;20061;-77
2022/03/03 04:59:24;;;;;;;44.65;23.38;;;-0.70;99.90;;;;;;5004740;28;20132;-78
2022/03/03 05:01:51;;;;;;;44.70;24.75;;;0.20;99.90;;;;;;5020001;28;20103;-77
2022/03/03 05:04:18;;;;;;;43.80;23.67;;;-0.70;99.90;;;;;;5038015;28;20491;-77
2022/03/03 05:06:44;;;;;;;47.80;24.30;;;0.90;99.90;;;;;;5002922;28;20128;-77
2022/03/03 05:09:10;;;;;;;44.17;24.05;;;-0.70;99.90;;;;;;5011429;28;20129;-77
2022/03/03 05:11:35;;;;;;;45.95;25.25;;;-0.40;99.90;;;;;;5010713;28;20905;-77
2022/03/03 05:14:01;;;;;;;43.65;23.70;;;-0.20;99.90;;;;;;5011489;28;20062;-77
2022/03/03 05:16:27;;;;;;;44.47;23.98;;;0.50;99.90;;;;;;5019448;28;20136;-77
2022/03/03 05:18:53;;;;;;;43.80;24.20;;;-0.80;99.90;;;;;;5005848;28;20042;-77
2022/03/03 05:21:18;;;;;;;42.40;23.40;;;0.50;99.90;;;;;;5018830;28;20045;-77
2022/03/03 05:23:44;;;;;;;41.83;23.90;;;0.40;99.90;;;;;;5003686;28;20160;-76
2022/03/03 05:26:10;;;;;;;40.85;23.33;;;-0.70;99.90;;;;;;5036910;28;20041;-76
2022/03/03 05:28:36;;;;;;;47.97;25.13;;;-0.70;99.90;;;;;;5002797;28;20552;-76
2022/03/03 05:31:02;;;;;;;46.92;24.17;;;0.70;99.90;;;;;;5011218;28;20061;-76
2022/03/03 05:33:29;;;;;;;42.55;23.50;;;0.70;99.90;;;;;;5003076;28;20049;-76
2022/03/03 05:35:59;;;;;;;44.50;24.00;;;-0.60;99.90;;;;;;5020839;28;20046;-76
2022/03/03 05:38:31;;;;;;;43.38;22.70;;;-0.60;99.90;;;;;;5027295;28;20046;-77
2022/03/03 05:40:57;;;;;;;42.97;23.17;;;0.70;99.90;;;;;;5019052;28;20058;-76
2022/03/03 05:43:24;;;;;;;45.85;23.77;;;-0.10;99.90;;;;;;5019339;28;20050;-76
2022/03/03 05:45:51;;;;;;;43.63;22.35;;;-0.60;99.90;;;;;;5017673;28;20052;-75
2022/03/03 05:48:19;;;;;;;40.17;23.30;;;-0.60;99.90;;;;;;5016821;28;20100;-75
2022/03/03 05:50:45;;;;;;;42.13;23.73;;;-0.60;99.90;;;;;;5016027;28;20231;-75
2022/03/03 05:53:12;;;;;;;42.33;23.02;;;-0.60;99.90;;;;;;5017810;28;20041;-75
2022/03/03 05:55:49;;;;;;;39.85;23.20;;;-0.60;99.90;;;;;;5018382;28;20055;-76
2022/03/03 05:58:16;;;;;;;42.00;22.85;;;-0.60;99.90;;;;;;5018738;28;20057;-75
2022/03/03 06:00:44;;;;;;;41.33;23.92;;;-0.20;99.90;;;;;;5002863;28;20056;-76
2022/03/03 06:03:13;;;;;;;44.40;24.05;;;-0.70;99.90;;;;;;5018168;28;20612;-75
2022/03/03 06:06:03;;;;;;;43.05;23.92;;;-0.20;99.90;;;;;;5025415;28;20053;-76
2022/03/03 06:08:38;;;;;;;39.45;21.88;;;-0.70;99.90;;;;;;5017413;28;20081;-76
2022/03/03 06:11:05;;;;;;;39.97;21.95;;;-0.70;99.90;;;;;;5018878;28;20183;-75
2022/03/03 06:13:44;;;;;;;44.58;22.88;;;0.40;99.90;;;;;;5018914;28;20053;-76
2022/03/03 06:16:12;;;;;;;38.90;22.45;;;-0.40;99.90;;;;;;5018335;28;20465;-75
2022/03/03 06:18:38;;;;;;;45.38;23.23;;;0.60;99.90;;;;;;5002826;28;20111;-76
2022/03/03 06:21:04;;;;;;;37.03;21.38;;;-0.70;99.90;;;;;;5002076;28;20064;-76
2022/03/03 06:23:30;;;;;;;43.55;24.20;;;-0.70;99.90;;;;;;5018786;28;20045;-76
2022/03/03 06:26:04;;;;;;;38.13;22.67;;;0.40;99.90;;;;;;5002300;28;20050;-76
2022/03/03 06:28:31;;;;;;;39.08;22.27;;;0.80;99.90;;;;;;5001965;28;20050;-76
2022/03/03 06:30:57;;;;;;;39.08;21.52;;;-0.80;99.90;;;;;;5018367;28;20050;-76
2022/03/03 06:33:23;;;;;;;42.42;22.85;;;0.80;99.90;;;;;;5025161;28;20055;-76
2022/03/03 06:35:49;;;;;;;42.47;23.08;;;-0.50;99.90;;;;;;5002414;28;20045;-75
2022/03/03 06:38:14;;;;;;;38.97;22.75;;;0.40;99.90;;;;;;5017780;28;20494;-75
2022/03/03 06:40:40;;;;;;;39.28;22.45;;;0.00;99.90;;;;;;5001722;28;20079;-77
2022/03/03 06:43:06;;;;;;;40.05;22.70;;;-0.60;99.90;;;;;;5018397;28;20062;-77
2022/03/03 06:45:32;;;;;;;39.15;21.65;;;0.10;99.90;;;;;;4985311;28;20141;-78
2022/03/03 06:48:00;;;;;;;42.63;21.92;;;-0.80;99.90;;;;;;5019031;28;20479;-77
2022/03/03 06:50:27;;;;;;;38.88;22.55;;;-0.80;99.90;;;;;;5019360;28;20144;-77
2022/03/03 06:52:54;;;;;;;38.72;21.60;;;-0.10;99.90;;;;;;5001162;28;20048;-80
2022/03/03 06:55:24;;;;;;;37.47;21.40;;;-0.80;99.90;;;;;;5017909;28;20125;-77
2022/03/03 06:57:55;;;;;;;38.70;22.00;;;-0.10;99.90;;;;;;5009805;28;20496;-78
2022/03/03 07:00:34;;;;;;;35.95;22.35;;;-0.80;99.90;;;;;;5016380;28;20168;-79
2022/03/03 07:03:05;;;;;;;39.33;22.20;;;-0.80;99.90;;;;;;5017372;28;20049;-78
2022/03/03 07:05:31;;;;;;;38.60;21.42;;;0.50;99.90;;;;;;5024861;28;20988;-79
2022/03/03 07:07:57;;;;;;;40.22;22.05;;;-0.80;99.90;;;;;;5008533;28;20058;-78
2022/03/03 07:10:25;;;;;;;34.30;21.38;;;0.40;99.90;;;;;;5015859;28;20049;-78
2022/03/03 07:12:56;;;;;;;39.38;22.95;;;0.80;99.90;;;;;;5000682;28;20137;-77
2022/03/03 07:15:24;;;;;;;35.08;21.15;;;-0.80;99.90;;;;;;5018144;28;20559;-79
2022/03/03 07:17:53;;;;;;;38.90;21.45;;;-0.70;99.90;;;;;;5033924;28;20061;-78
2022/03/03 07:20:44;;;;;;;38.70;21.65;;;0.40;99.90;;;;;;5017778;28;20053;-78
2022/03/03 07:23:25;;;;;;;38.08;21.27;;;-0.70;99.90;;;;;;5015129;28;20080;-79
2022/03/03 07:25:54;;;;;;;38.00;22.08;;;-0.70;99.90;;;;;;5035368;28;20124;-78
2022/03/03 07:28:21;;;;;;;36.35;21.42;;;-0.60;99.90;;;;;;5002965;28;20053;-77
2022/03/03 07:30:50;;;;;;;37.60;20.73;;;-0.60;99.90;;;;;;5023184;28;20065;-78
2022/03/03 07:33:24;;;;;;;36.95;21.00;;;-0.50;99.90;;;;;;5014614;28;20041;-77
2022/03/03 07:35:50;;;;;;;36.50;21.85;;;1.30;99.90;;;;;;5002833;28;20079;-76
2022/03/03 07:38:19;;;;;;;34.60;20.40;;;0.50;99.90;;;;;;4982704;28;20089;-76
2022/03/03 07:40:48;;;;;;;39.05;22.27;;;0.60;99.90;;;;;;5005073;28;20054;-75
2022/03/03 07:43:15;;;;;;;35.47;21.58;;;0.70;99.90;;;;;;5013059;28;20136;-79
2022/03/03 07:45:42;;;;;;;37.40;22.48;;;-0.30;99.90;;;;;;5029545;28;20103;-78
2022/03/03 07:48:09;;;;;;;36.10;20.73;;;-0.40;99.90;;;;;;5018201;28;20123;-77
2022/03/03 07:50:39;;;;;;;37.42;22.08;;;1.10;99.90;;;;;;5015031;28;20056;-78
2022/03/03 07:53:07;;;;;;;37.40;21.80;;;0.50;99.90;;;;;;5014230;28;20108;-78
2022/03/03 07:55:37;;;;;;;37.65;21.70;;;-0.10;99.90;;;;;;5032463;28;20054;-78
2022/03/03 07:58:03;;;;;;;36.30;20.38;;;-0.10;99.90;;;;;;5025252;28;20064;-76
2022/03/03 08:00:34;;;;;;;40.35;21.45;;;1.80;99.90;;;;;;5016866;28;20042;-76
2022/03/03 08:03:04;;;;;;;36.42;20.95;;;0.10;99.90;;;;;;5016634;28;20108;-76
2022/03/03 08:05:33;;;;;;;37.30;20.98;;;1.10;99.90;;;;;;5017112;28;20068;-76
2022/03/03 08:08:02;;;;;;;34.60;20.55;;;0.20;99.90;;;;;;5016754;28;20049;-76
2022/03/03 08:10:30;;;;;;;35.92;21.08;;;0.30;99.90;;;;;;5017530;28;20053;-76
2022/03/03 08:12:57;;;;;;;37.55;21.65;;;0.90;99.90;;;;;;5017033;28;20502;-76
2022/03/03 08:15:24;;;;;;;34.25;21.00;;;0.50;99.90;;;;;;5008172;28;20088;-76
2022/03/03 08:17:52;;;;;;;32.55;19.42;;;0.80;99.90;;;;;;5013952;28;20050;-76
2022/03/03 08:20:19;;;;;;;34.00;20.65;;;1.90;99.90;;;;;;5016714;28;20048;-76
2022/03/03 08:22:46;;;;;;;33.78;20.40;;;1.90;99.90;;;;;;5003348;28;20041;-76
2022/03/03 08:25:12;;;;;;;38.42;20.60;;;2.30;99.90;;;;;;4988021;28;20050;-76
2022/03/03 08:27:40;;;;;;;32.28;20.30;;;1.40;99.90;;;;;;5034102;28;20054;-78
2022/03/03 08:30:08;;;;;;;34.28;21.92;;;2.50;99.90;;;;;;5018404;28;20060;-78
2022/03/03 08:32:40;;;;;;;35.22;21.52;;;1.90;99.90;;;;;;5019001;28;20332;-78
2022/03/03 08:35:13;;;;;;;33.00;21.02;;;2.70;99.90;;;;;;5028560;28;20163;-78
2022/03/03 08:37:53;;;;;;;30.20;19.70;;;2.50;99.90;;;;;;5018698;28;20045;-79
2022/03/03 08:40:21;;;;;;;34.13;19.58;;;2.70;99.90;;;;;;5019827;28;20049;-78
2022/03/03 08:42:49;;;;;;;31.13;19.80;;;3.70;99.90;;;;;;5019194;28;20145;-78
2022/03/03 08:45:19;;;;;;;29.67;19.35;;;4.30;99.90;;;;;;5035795;28;20465;-76
2022/03/03 08:47:52;;;;;;;27.35;18.77;;;3.50;99.90;;;;;;5021187;28;20107;-76
2022/03/03 08:50:19;;;;;;;28.98;18.95;;;3.70;99.90;;;;;;5018966;28;20050;-75
2022/03/03 08:52:44;;;;;;;29.58;19.00;;;4.00;99.90;;;;;;4986464;28;20559;-76
2022/03/03 08:55:12;;;;;;;28.13;18.13;;;4.30;99.90;;;;;;5018004;28;20099;-76
2022/03/03 08:57:38;;;;;;;28.50;19.25;;;4.50;99.90;;;;;;5017152;28;20083;-76
2022/03/03 09:00:07;;;;;;;27.25;17.52;;;5.60;99.90;;;;;;5018269;28;20054;-76
2022/03/03 09:02:33;;;;;;;27.27;17.55;;;5.00;99.90;;;;;;5010203;28;20073;-76
2022/03/03 09:04:59;;;;;;;26.23;17.77;;;5.30;99.90;;;;;;5003104;28;20475;-76
2022/03/03 09:07:24;;;;;;;21.88;15.32;;;5.50;99.90;;;;;;5018787;28;20111;-76
2022/03/03 09:09:50;;;;;;;23.58;16.40;;;5.80;99.90;;;;;;4986654;28;20046;-76
2022/03/03 09:12:16;;;;;;;23.55;16.75;;;6.00;99.90;;;;;;5003336;28;20041;-76
2022/03/03 09:14:42;;;;;;;22.20;15.95;;;6.10;99.90;;;;;;5017451;28;20054;-76
2022/03/03 09:17:07;;;;;;;24.20;15.80;;;6.30;99.90;;;;;;5019776;28;20057;-76
2022/03/03 09:19:33;;;;;;;21.67;15.05;;;6.50;99.90;;;;;;5019151;28;20114;-76
2022/03/03 09:21:59;;;;;;;19.80;14.43;;;7.00;99.90;;;;;;5002913;28;20467;-75
2022/03/03 09:24:25;;;;;;;21.17;15.05;;;6.80;99.90;;;;;;5020241;28;20081;-76
2022/03/03 09:26:52;;;;;;;20.90;14.65;;;6.90;99.90;;;;;;5003248;28;20083;-76
2022/03/03 09:29:18;;;;;;;18.20;14.18;;;6.90;99.90;;;;;;5020166;28;20115;-76
2022/03/03 09:31:44;;;;;;;22.13;15.23;;;6.90;99.90;;;;;;5003688;28;20064;-76
2022/03/03 09:34:10;;;;;;;20.27;14.60;;;6.90;99.90;;;;;;4994271;28;20042;-76
2022/03/03 09:36:36;;;;;;;16.98;13.07;;;6.90;99.90;;;;;;5003200;28;20149;-76
2022/03/03 09:39:02;;;;;;;18.77;13.90;;;6.90;99.90;;;;;;5019157;28;20048;-77
2022/03/03 09:41:28;;;;;;;17.52;14.02;;;6.90;99.90;;;;;;5011635;28;20091;-76
2022/03/03 09:43:59;;;;;;;17.60;13.43;;;6.90;99.90;;;;;;5003245;28;20038;-76
2022/03/03 09:46:25;;;;;;;20.33;14.18;;;6.90;99.90;;;;;;5003925;28;20046;-76
2022/03/03 09:48:51;;;;;;;19.63;13.75;;;6.90;99.90;;;;;;5018841;28;20046;-76
2022/03/03 09:51:17;;;;;;;19.55;13.65;;;7.80;99.90;;;;;;5018844;28;20099;-76
2022/03/03 09:53:43;;;;;;;17.90;12.73;;;7.20;99.90;;;;;;4986115;28;20079;-75
2022/03/03 09:56:09;;;;;;;20.85;13.55;;;7.20;99.90;;;;;;5019485;28;20377;-77
2022/03/03 09:58:35;;;;;;;17.02;12.45;;;7.70;99.90;;;;;;5003251;28;20095;-77
2022/03/03 10:01:01;;;;;;;18.10;13.45;;;7.70;99.90;;;;;;5035045;28;20541;-76
2022/03/03 10:03:34;;;;;;;18.10;12.98;;;8.00;99.90;;;;;;5011095;28;20042;-76
2022/03/03 10:06:01;;;;;;;14.82;12.30;;;8.20;99.90;;;;;;5018335;28;20100;-76
2022/03/03 10:08:29;;;;;;;16.05;12.80;;;8.50;99.90;;;;;;5019920;28;20099;-76
2022/03/03 10:11:02;;;;;;;14.80;12.50;;;8.60;99.90;;;;;;5034905;28;20376;-76
2022/03/03 10:13:48;;;;;;;15.68;11.57;;;8.90;99.90;;;;;;5017544;28;20107;-76
2022/03/03 10:16:31;;;;;;;15.45;12.00;;;8.90;99.90;;;;;;5009396;28;20057;-76
2022/03/03 10:19:06;;;;;;;14.65;11.27;;;9.10;99.90;;;;;;5002558;28;20046;-76
2022/03/03 10:21:33;;;;;;;15.63;12.00;;;9.30;99.90;;;;;;5017861;28;20060;-77
2022/03/03 10:24:13;;;;;;;17.83;12.02;;;9.30;99.90;;;;;;5017015;28;20124;-76
2022/03/03 10:26:39;;;;;;;14.95;12.02;;;9.50;99.90;;;;;;5009976;28;20054;-76
2022/03/03 10:29:18;;;;;;;13.70;10.35;;;9.60;99.90;;;;;;5018568;28;20042;-75
2022/03/03 10:31:52;;;;;;;15.40;10.32;;;9.60;99.90;;;;;;5002498;28;20049;-76
2022/03/03 10:34:27;;;;;;;13.32;10.10;;;9.60;99.90;;;;;;5017797;28;20049;-76
2022/03/03 10:37:06;;;;;;;14.75;11.20;;;9.50;99.90;;;;;;5009812;28;20085;-77
2022/03/03 10:39:55;;;;;;;14.77;10.35;;;9.50;99.90;;;;;;5019105;28;20136;-76
2022/03/03 10:42:26;;;;;;;14.43;10.95;;;9.50;99.90;;;;;;4994934;28;20049;-76
2022/03/03 10:45:16;;;;;;;12.95;10.75;;;9.40;99.90;;;;;;5017489;28;20590;-76
2022/03/03 10:48:06;;;;;;;14.80;10.90;;;9.60;99.90;;;;;;5016958;28;20062;-77
2022/03/03 10:50:49;;;;;;;13.07;11.10;;;9.70;99.90;;;;;;5010775;28;20446;-75
2022/03/03 10:53:19;;;;;;;12.55;10.25;;;9.80;99.90;;;;;;5002333;28;20095;-76
2022/03/03 10:56:06;;;;;;;13.10;10.23;;;9.90;99.90;;;;;;5018286;28;20079;-77
2022/03/03 10:58:49;;;;;;;13.75;10.55;;;10.00;99.90;;;;;;5016902;28;20499;-76
2022/03/03 11:01:20;;;;;;;15.48;11.38;;;10.10;99.90;;;;;;5032580;28;20050;-77
2022/03/03 11:03:53;;;;;;;14.32;11.18;;;10.30;99.90;;;;;;5015411;28;20054;-76
2022/03/03 11:06:30;;;;;;;12.60;10.20;;;10.60;99.90;;;;;;5001881;28;20041;-77
2022/03/03 11:08:57;;;;;;;12.05;10.07;;;11.10;99.90;;;;;;5016672;28;20134;-77
2022/03/03 11:11:24;;;;;;;13.55;10.75;;;11.40;99.90;;;;;;5032896;28;20077;-77
2022/03/03 11:13:53;;;;;;;13.65;10.73;;;11.80;99.90;;;;;;5008476;28;20487;-77
2022/03/03 11:16:22;;;;;;;13.18;10.13;;;12.40;99.90;;;;;;5001854;28;20419;-77
2022/03/03 11:18:48;;;;;;;12.55;10.65;;;13.00;99.90;;;;;;5016138;28;20057;-77
2022/03/03 11:21:15;;;;;;;13.07;10.75;;;13.70;99.90;;;;;;5000838;28;20123;-77
2022/03/03 11:23:43;;;;;;;14.30;10.82;;;14.10;98.60;;;;;;5002152;28;20052;-77
2022/03/03 11:26:21;;;;;;;13.90;10.88;;;14.40;98.20;;;;;;5017149;28;20056;-77
2022/03/03 11:29:12;;;;;;;12.35;10.52;;;14.80;98.20;;;;;;5016563;28;20484;-76
2022/03/03 11:31:41;;;;;;;14.57;10.48;;;15.20;93.90;;;;;;5017961;28;20059;-77
2022/03/03 11:34:26;;;;;;;11.88;10.50;;;15.60;96.10;;;;;;5016973;28;20042;-77
2022/03/03 11:37:04;;;;;;;12.38;9.90;;;16.20;90.20;;;;;;5017369;28;20053;-78
2022/03/03 11:39:40;;;;;;;12.25;9.80;;;16.90;90.80;;;;;;5017120;28;20080;-77
2022/03/03 11:42:20;;;;;;;;;;;17.80;79.70;;;;;;5002459;28;20566;-78
2022/03/03 11:44:46;;;;;;;10.95;9.52;;;18.30;71.50;;;;;;5018141;28;19929;-78
2022/03/03 11:47:25;;;;;;;11.60;9.55;;;18.80;77.00;;;;;;5009026;28;20049;-77
2022/03/03 11:50:05;;;;;;;12.57;10.30;;;19.50;66.90;;;;;;5000219;28;20056;-77
2022/03/03 11:52:31;;;;;;;12.48;9.93;;;19.70;61.10;;;;;;5017617;28;20077;-77
2022/03/03 11:55:00;;;;;;;12.55;10.15;;;19.50;59.40;;;;;;5017021;28;20050;-77
2022/03/03 11:57:32;;;;;;;11.75;9.90;;;19.40;57.60;;;;;;5027724;28;20107;-78
2022/03/03 12:00:06;;;;;;;10.93;9.48;;;19.30;56.00;;;;;;5012459;28;20413;-77
2022/03/03 12:02:34;;;;;;;11.23;10.02;;;19.70;55.00;;;;;;5021575;28;20053;-77
2022/03/03 12:05:27;;;;;;;11.73;9.68;;;19.90;55.10;;;;;;5005373;28;20064;-78
2022/03/03 12:08:02;;;;;;;11.65;9.60;;;19.80;50.90;;;;;;5005435;28;20156;-77
2022/03/03 12:10:29;;;;;;;11.65;9.20;;;19.20;52.10;;;;;;5021113;28;20049;-77
2022/03/03 12:13:23;;;;;;;12.27;9.68;;;20.50;55.30;;;;;;5011985;28;20045;-77
2022/03/03 12:16:20;;;;;;;11.45;9.35;;;20.70;51.70;;;;;;5021388;28;20175;-77
2022/03/03 12:19:04;;;;;;;10.35;8.82;;;21.00;52.80;;;;;;5021392;28;20064;-77
2022/03/03 12:21:34;;;;;;;11.15;9.43;;;21.50;53.80;;;;;;5021456;28;20041;-77
2022/03/03 12:24:22;;;;;;;10.60;9.45;;;21.80;53.20;;;;;;5021748;28;20045;-77
2022/03/03 12:26:57;;;;;;;11.95;9.32;;;21.70;50.50;;;;;;5037679;28;20060;-77
2022/03/03 12:29:42;;;;;;;10.37;9.17;;;21.70;52.90;;;;;;5019985;28;20135;-78
2022/03/03 12:32:30;;;;;;;11.40;9.52;;;21.50;51.50;;;;;;5020788;28;20503;-77
2022/03/03 12:35:03;;;;;;;10.52;9.07;;;21.40;49.70;;;;;;5021633;28;20053;-78
2022/03/03 12:37:32;;;;;;;10.98;9.10;;;21.40;53.20;;;;;;5005824;28;20065;-78
2022/03/03 12:40:00;;;;;;;11.38;9.48;;;21.30;52.80;;;;;;5020816;28;20100;-78
2022/03/03 12:42:30;;;;;;;10.55;8.52;;;21.40;53.40;;;;;;5021568;28;20057;-78
2022/03/03 12:45:09;;;;;;;11.43;9.10;;;21.40;52.60;;;;;;5020788;28;20046;-78